sensor_id;sensor_type;location;lat;lon;timestamp;temperature;humidity
59148;DHT22;44930;52.878;6.168;2023-05-29T00:00:07;9.20;99.90
59148;DHT22;44930;52.878;6.168;2023-05-29T00:02:34;9.20;99.90
59148;DHT22;44930;52.878;6.168;2023-05-29T00:04:59;9.20;99.90
59148;DHT22;44930;52.878;6.168;2023-05-29T00:07:29;9.20;99.90
59148;DHT22;44930;52.878;6.168;2023-05-29T00:09:54;9.20;99.90
59148;DHT22;44930;52.878;6.168;2023-05-29T00:12:20;9.10;99.90
59148;DHT22;44930;52.878;6.168;2023-05-29T00:19:41;9.10;99.90
59148;DHT22;44930;52.878;6.168;2023-05-29T00:22:06;9.00;99.90
59148;DHT22;44930;52.878;6.168;2023-05-29T00:24:32;9.20;99.90
59148;DHT22;44930;52.878;6.168;2023-05-29T00:26:58;9.00;99.90
59148;DHT22;44930;52.878;6.168;2023-05-29T00:29:24;8.90;99.90
59148;DHT22;44930;52.878;6.168;2023-05-29T00:31:50;8.80;99.90
59148;DHT22;44930;52.878;6.168;2023-05-29T00:34:22;8.70;99.90
59148;DHT22;44930;52.878;6.168;2023-05-29T00:36:48;8.80;99.90
59148;DHT22;44930;52.878;6.168;2023-05-29T00:39:14;8.80;99.90
59148;DHT22;44930;52.878;6.168;2023-05-29T00:41:39;8.80;99.90
59148;DHT22;44930;52.878;6.168;2023-05-29T00:44:05;8.80;99.90
59148;DHT22;44930;52.878;6.168;2023-05-29T00:46:31;8.80;99.90
59148;DHT22;44930;52.878;6.168;2023-05-29T00:48:59;8.90;99.90
59148;DHT22;44930;52.878;6.168;2023-05-29T00:51:26;8.70;99.90
59148;DHT22;44930;52.878;6.168;2023-05-29T00:53:52;8.80;99.90
59148;DHT22;44930;52.878;6.168;2023-05-29T00:56:19;8.80;99.90
59148;DHT22;44930;52.878;6.168;2023-05-29T00:58:50;8.60;99.90
59148;DHT22;44930;52.878;6.168;2023-05-29T01:01:18;8.80;99.90
59148;DHT22;44930;52.878;6.168;2023-05-29T01:03:44;8.70;99.90
59148;DHT22;44930;52.878;6.168;2023-05-29T01:06:11;8.70;99.90
59148;DHT22;44930;52.878;6.168;2023-05-29T01:08:37;8.60;99.90
59148;DHT22;44930;52.878;6.168;2023-05-29T01:13:42;8.70;99.90
59148;DHT22;44930;52.878;6.168;2023-05-29T01:16:21;8.70;99.90
59148;DHT22;44930;52.878;6.168;2023-05-29T01:19:00;8.60;99.90
59148;DHT22;44930;52.878;6.168;2023-05-29T01:21:50;8.50;99.90
59148;DHT22;44930;52.878;6.168;2023-05-29T01:24:38;8.50;99.90
59148;DHT22;44930;52.878;6.168;2023-05-29T01:27:15;8.20;99.90
59148;DHT22;44930;52.878;6.168;2023-05-29T01:32:10;8.60;99.90
59148;DHT22;44930;52.878;6.168;2023-05-29T01:34:36;8.50;99.90
59148;DHT22;44930;52.878;6.168;2023-05-29T01:37:01;8.90;99.90
59148;DHT22;44930;52.878;6.168;2023-05-29T01:39:27;8.40;99.90
59148;DHT22;44930;52.878;6.168;2023-05-29T01:44:21;8.60;99.90
59148;DHT22;44930;52.878;6.168;2023-05-29T01:46:47;8.60;99.90
59148;DHT22;44930;52.878;6.168;2023-05-29T01:49:14;8.50;99.90
59148;DHT22;44930;52.878;6.168;2023-05-29T01:51:41;8.50;99.90
59148;DHT22;44930;52.878;6.168;2023-05-29T01:54:07;8.60;99.90
59148;DHT22;44930;52.878;6.168;2023-05-29T01:56:34;8.50;99.90
59148;DHT22;44930;52.878;6.168;2023-05-29T01:59:02;8.60;99.90
59148;DHT22;44930;52.878;6.168;2023-05-29T02:01:27;8.60;99.90
59148;DHT22;44930;52.878;6.168;2023-05-29T02:03:53;8.50;99.90
59148;DHT22;44930;52.878;6.168;2023-05-29T02:06:19;8.50;99.90
59148;DHT22;44930;52.878;6.168;2023-05-29T02:08:45;8.50;99.90
59148;DHT22;44930;52.878;6.168;2023-05-29T02:11:11;8.50;99.90
59148;DHT22;44930;52.878;6.168;2023-05-29T02:13:37;8.60;99.90
59148;DHT22;44930;52.878;6.168;2023-05-29T02:16:02;8.50;99.90
59148;DHT22;44930;52.878;6.168;2023-05-29T02:18:28;8.40;99.90
59148;DHT22;44930;52.878;6.168;2023-05-29T02:20:54;8.60;99.90
59148;DHT22;44930;52.878;6.168;2023-05-29T02:23:19;8.30;99.90
59148;DHT22;44930;52.878;6.168;2023-05-29T02:25:45;8.20;99.90
59148;DHT22;44930;52.878;6.168;2023-05-29T02:28:11;8.20;99.90
59148;DHT22;44930;52.878;6.168;2023-05-29T02:30:36;8.00;99.90
59148;DHT22;44930;52.878;6.168;2023-05-29T02:33:02;7.90;99.90
59148;DHT22;44930;52.878;6.168;2023-05-29T02:35:28;7.90;99.90
59148;DHT22;44930;52.878;6.168;2023-05-29T02:37:54;8.00;99.90
59148;DHT22;44930;52.878;6.168;2023-05-29T02:40:20;8.10;99.90
59148;DHT22;44930;52.878;6.168;2023-05-29T02:42:46;8.00;99.90
59148;DHT22;44930;52.878;6.168;2023-05-29T02:45:12;7.90;99.90
59148;DHT22;44930;52.878;6.168;2023-05-29T02:47:38;8.00;99.90
59148;DHT22;44930;52.878;6.168;2023-05-29T02:50:04;7.90;99.90
59148;DHT22;44930;52.878;6.168;2023-05-29T02:52:31;8.00;99.90
59148;DHT22;44930;52.878;6.168;2023-05-29T02:54:57;8.10;99.90
59148;DHT22;44930;52.878;6.168;2023-05-29T02:57:24;7.90;99.90
59148;DHT22;44930;52.878;6.168;2023-05-29T02:59:50;7.90;99.90
59148;DHT22;44930;52.878;6.168;2023-05-29T03:04:43;7.80;99.90
59148;DHT22;44930;52.878;6.168;2023-05-29T03:07:09;7.80;99.90
59148;DHT22;44930;52.878;6.168;2023-05-29T03:09:35;7.70;99.90
59148;DHT22;44930;52.878;6.168;2023-05-29T03:12:00;7.70;99.90
59148;DHT22;44930;52.878;6.168;2023-05-29T03:14:29;7.80;99.90
59148;DHT22;44930;52.878;6.168;2023-05-29T03:16:55;7.60;99.90
59148;DHT22;44930;52.878;6.168;2023-05-29T03:19:21;7.80;99.90
59148;DHT22;44930;52.878;6.168;2023-05-29T03:21:47;7.90;99.90
59148;DHT22;44930;52.878;6.168;2023-05-29T03:26:39;7.70;99.90
59148;DHT22;44930;52.878;6.168;2023-05-29T03:29:05;7.90;99.90
59148;DHT22;44930;52.878;6.168;2023-05-29T03:31:31;7.90;99.90
59148;DHT22;44930;52.878;6.168;2023-05-29T03:33:57;7.70;99.90
59148;DHT22;44930;52.878;6.168;2023-05-29T03:38:49;7.70;99.90
59148;DHT22;44930;52.878;6.168;2023-05-29T03:41:15;7.70;99.90
59148;DHT22;44930;52.878;6.168;2023-05-29T03:43:40;7.70;99.90
59148;DHT22;44930;52.878;6.168;2023-05-29T03:46:06;7.80;99.90
59148;DHT22;44930;52.878;6.168;2023-05-29T03:48:32;7.70;99.90
59148;DHT22;44930;52.878;6.168;2023-05-29T03:50:57;7.70;99.90
59148;DHT22;44930;52.878;6.168;2023-05-29T03:53:23;7.60;99.90
59148;DHT22;44930;52.878;6.168;2023-05-29T03:55:48;7.60;99.90
59148;DHT22;44930;52.878;6.168;2023-05-29T04:00:41;7.60;99.90
59148;DHT22;44930;52.878;6.168;2023-05-29T04:03:06;7.70;99.90
59148;DHT22;44930;52.878;6.168;2023-05-29T04:05:32;7.60;99.90
59148;DHT22;44930;52.878;6.168;2023-05-29T04:07:57;7.70;99.90
59148;DHT22;44930;52.878;6.168;2023-05-29T04:10:23;7.70;99.90
59148;DHT22;44930;52.878;6.168;2023-05-29T04:12:50;7.50;99.90
59148;DHT22;44930;52.878;6.168;2023-05-29T04:15:16;7.60;99.90
59148;DHT22;44930;52.878;6.168;2023-05-29T04:17:41;7.60;99.90
59148;DHT22;44930;52.878;6.168;2023-05-29T04:20:07;7.60;99.90
59148;DHT22;44930;52.878;6.168;2023-05-29T04:22:37;7.70;99.90
59148;DHT22;44930;52.878;6.168;2023-05-29T04:25:04;7.70;99.90
59148;DHT22;44930;52.878;6.168;2023-05-29T04:27:31;7.70;99.90
59148;DHT22;44930;52.878;6.168;2023-05-29T04:29:58;7.80;99.90
59148;DHT22;44930;52.878;6.168;2023-05-29T04:32:23;7.80;99.90
59148;DHT22;44930;52.878;6.168;2023-05-29T04:34:49;7.80;99.90
59148;DHT22;44930;52.878;6.168;2023-05-29T04:37:18;7.90;99.90
59148;DHT22;44930;52.878;6.168;2023-05-29T04:39:44;7.90;99.90
59148;DHT22;44930;52.878;6.168;2023-05-29T04:42:09;8.00;99.90
59148;DHT22;44930;52.878;6.168;2023-05-29T04:44:35;8.00;99.90
59148;DHT22;44930;52.878;6.168;2023-05-29T04:47:00;8.00;99.90
59148;DHT22;44930;52.878;6.168;2023-05-29T04:49:29;8.00;99.90
59148;DHT22;44930;52.878;6.168;2023-05-29T04:51:55;8.10;99.90
59148;DHT22;44930;52.878;6.168;2023-05-29T04:54:22;8.00;99.90
59148;DHT22;44930;52.878;6.168;2023-05-29T04:56:48;8.20;99.90
59148;DHT22;44930;52.878;6.168;2023-05-29T05:01:39;8.30;99.90
59148;DHT22;44930;52.878;6.168;2023-05-29T05:04:08;8.20;99.90
59148;DHT22;44930;52.878;6.168;2023-05-29T05:06:34;8.40;99.90
59148;DHT22;44930;52.878;6.168;2023-05-29T05:08:59;8.40;99.90
59148;DHT22;44930;52.878;6.168;2023-05-29T05:11:25;8.40;99.90
59148;DHT22;44930;52.878;6.168;2023-05-29T05:13:51;8.40;99.90
59148;DHT22;44930;52.878;6.168;2023-05-29T05:18:43;8.60;99.90
59148;DHT22;44930;52.878;6.168;2023-05-29T05:21:09;8.80;99.90
59148;DHT22;44930;52.878;6.168;2023-05-29T05:23:35;8.70;99.90
59148;DHT22;44930;52.878;6.168;2023-05-29T05:26:01;8.90;99.90
59148;DHT22;44930;52.878;6.168;2023-05-29T05:28:27;9.00;99.90
59148;DHT22;44930;52.878;6.168;2023-05-29T05:30:52;9.00;99.90
59148;DHT22;44930;52.878;6.168;2023-05-29T05:33:18;9.20;99.90
59148;DHT22;44930;52.878;6.168;2023-05-29T05:35:43;9.20;99.90
59148;DHT22;44930;52.878;6.168;2023-05-29T05:38:09;9.30;99.90
59148;DHT22;44930;52.878;6.168;2023-05-29T05:40:34;9.40;99.90
59148;DHT22;44930;52.878;6.168;2023-05-29T05:43:00;9.50;99.90
59148;DHT22;44930;52.878;6.168;2023-05-29T05:45:26;9.60;99.90
59148;DHT22;44930;52.878;6.168;2023-05-29T05:47:51;9.70;99.90
59148;DHT22;44930;52.878;6.168;2023-05-29T05:52:43;9.80;99.90
59148;DHT22;44930;52.878;6.168;2023-05-29T05:55:08;10.00;99.90
59148;DHT22;44930;52.878;6.168;2023-05-29T05:57:34;9.80;99.90
59148;DHT22;44930;52.878;6.168;2023-05-29T06:00:02;10.10;99.90
59148;DHT22;44930;52.878;6.168;2023-05-29T06:02:30;10.30;99.90
59148;DHT22;44930;52.878;6.168;2023-05-29T06:04:55;10.20;99.90
59148;DHT22;44930;52.878;6.168;2023-05-29T06:07:21;10.30;99.90
59148;DHT22;44930;52.878;6.168;2023-05-29T06:09:47;10.40;99.90
59148;DHT22;44930;52.878;6.168;2023-05-29T06:12:12;10.60;99.90
59148;DHT22;44930;52.878;6.168;2023-05-29T06:14:38;10.50;99.90
59148;DHT22;44930;52.878;6.168;2023-05-29T06:17:04;10.50;99.90
59148;DHT22;44930;52.878;6.168;2023-05-29T06:19:29;10.60;99.90
59148;DHT22;44930;52.878;6.168;2023-05-29T06:21:55;10.60;99.90
59148;DHT22;44930;52.878;6.168;2023-05-29T06:24:21;10.70;99.90
59148;DHT22;44930;52.878;6.168;2023-05-29T06:26:46;10.70;99.90
59148;DHT22;44930;52.878;6.168;2023-05-29T06:31:37;10.80;99.90
59148;DHT22;44930;52.878;6.168;2023-05-29T06:34:03;10.80;99.90
59148;DHT22;44930;52.878;6.168;2023-05-29T06:36:29;10.90;99.90
59148;DHT22;44930;52.878;6.168;2023-05-29T06:41:20;11.00;99.90
59148;DHT22;44930;52.878;6.168;2023-05-29T06:43:46;11.00;99.90
59148;DHT22;44930;52.878;6.168;2023-05-29T06:46:12;10.80;99.90
59148;DHT22;44930;52.878;6.168;2023-05-29T06:48:37;10.90;99.90
59148;DHT22;44930;52.878;6.168;2023-05-29T06:51:03;10.80;99.90
59148;DHT22;44930;52.878;6.168;2023-05-29T06:53:38;11.20;99.90
59148;DHT22;44930;52.878;6.168;2023-05-29T06:56:04;11.10;99.90
59148;DHT22;44930;52.878;6.168;2023-05-29T06:58:31;11.20;99.90
59148;DHT22;44930;52.878;6.168;2023-05-29T07:00:57;11.20;99.90
59148;DHT22;44930;52.878;6.168;2023-05-29T07:05:48;11.20;99.90
59148;DHT22;44930;52.878;6.168;2023-05-29T07:10:40;11.40;99.90
59148;DHT22;44930;52.878;6.168;2023-05-29T07:13:06;11.20;99.90
59148;DHT22;44930;52.878;6.168;2023-05-29T07:15:32;11.20;99.90
59148;DHT22;44930;52.878;6.168;2023-05-29T07:17:57;11.20;99.90
59148;DHT22;44930;52.878;6.168;2023-05-29T07:20:23;11.30;99.90
59148;DHT22;44930;52.878;6.168;2023-05-29T07:22:48;11.40;99.90
59148;DHT22;44930;52.878;6.168;2023-05-29T07:27:40;11.40;99.90
59148;DHT22;44930;52.878;6.168;2023-05-29T07:30:06;11.50;99.90
59148;DHT22;44930;52.878;6.168;2023-05-29T07:32:32;11.50;99.90
59148;DHT22;44930;52.878;6.168;2023-05-29T07:34:58;11.50;99.90
59148;DHT22;44930;52.878;6.168;2023-05-29T07:37:24;11.50;99.90
59148;DHT22;44930;52.878;6.168;2023-05-29T07:39:49;11.70;99.90
59148;DHT22;44930;52.878;6.168;2023-05-29T07:42:15;11.70;99.90
59148;DHT22;44930;52.878;6.168;2023-05-29T07:44:42;11.60;99.90
59148;DHT22;44930;52.878;6.168;2023-05-29T07:47:11;11.80;99.90
59148;DHT22;44930;52.878;6.168;2023-05-29T07:52:03;11.60;99.90
59148;DHT22;44930;52.878;6.168;2023-05-29T07:54:30;11.70;99.90
59148;DHT22;44930;52.878;6.168;2023-05-29T07:57:01;12.00;99.90
59148;DHT22;44930;52.878;6.168;2023-05-29T07:59:28;11.90;99.90
59148;DHT22;44930;52.878;6.168;2023-05-29T08:01:54;11.90;99.90
59148;DHT22;44930;52.878;6.168;2023-05-29T08:04:23;11.90;99.90
59148;DHT22;44930;52.878;6.168;2023-05-29T08:09:16;12.20;99.90
59148;DHT22;44930;52.878;6.168;2023-05-29T08:11:43;12.00;99.90
59148;DHT22;44930;52.878;6.168;2023-05-29T08:14:11;12.20;99.90
59148;DHT22;44930;52.878;6.168;2023-05-29T08:16:36;12.20;99.90
59148;DHT22;44930;52.878;6.168;2023-05-29T08:19:02;12.50;99.90
59148;DHT22;44930;52.878;6.168;2023-05-29T08:21:29;12.20;99.90
59148;DHT22;44930;52.878;6.168;2023-05-29T08:23:55;12.60;99.90
59148;DHT22;44930;52.878;6.168;2023-05-29T08:26:20;12.70;99.90
59148;DHT22;44930;52.878;6.168;2023-05-29T08:28:46;12.60;99.90
59148;DHT22;44930;52.878;6.168;2023-05-29T08:31:12;12.60;99.90
59148;DHT22;44930;52.878;6.168;2023-05-29T08:33:37;12.60;99.90
59148;DHT22;44930;52.878;6.168;2023-05-29T08:36:03;13.00;99.90
59148;DHT22;44930;52.878;6.168;2023-05-29T08:38:29;12.60;99.90
59148;DHT22;44930;52.878;6.168;2023-05-29T08:40:56;12.70;99.90
59148;DHT22;44930;52.878;6.168;2023-05-29T08:43:24;12.80;99.90
59148;DHT22;44930;52.878;6.168;2023-05-29T08:45:55;12.50;99.90
59148;DHT22;44930;52.878;6.168;2023-05-29T08:48:25;13.00;99.90
59148;DHT22;44930;52.878;6.168;2023-05-29T08:50:53;12.70;99.90
59148;DHT22;44930;52.878;6.168;2023-05-29T08:53:21;13.00;99.90
59148;DHT22;44930;52.878;6.168;2023-05-29T08:55:47;13.10;99.90
59148;DHT22;44930;52.878;6.168;2023-05-29T08:58:18;13.00;99.90
59148;DHT22;44930;52.878;6.168;2023-05-29T09:00:48;13.00;99.90
59148;DHT22;44930;52.878;6.168;2023-05-29T09:03:15;13.10;99.90
59148;DHT22;44930;52.878;6.168;2023-05-29T09:05:41;12.70;99.90
59148;DHT22;44930;52.878;6.168;2023-05-29T09:08:08;13.10;99.90
59148;DHT22;44930;52.878;6.168;2023-05-29T09:10:35;13.20;99.90
59148;DHT22;44930;52.878;6.168;2023-05-29T09:13:01;13.20;99.90
59148;DHT22;44930;52.878;6.168;2023-05-29T09:15:27;13.50;99.90
59148;DHT22;44930;52.878;6.168;2023-05-29T09:17:54;13.20;99.90
59148;DHT22;44930;52.878;6.168;2023-05-29T09:20:21;13.40;99.90
59148;DHT22;44930;52.878;6.168;2023-05-29T09:22:57;13.40;99.90
59148;DHT22;44930;52.878;6.168;2023-05-29T09:25:24;13.50;99.90
59148;DHT22;44930;52.878;6.168;2023-05-29T09:27:57;13.40;99.90
59148;DHT22;44930;52.878;6.168;2023-05-29T09:33:01;13.00;99.90
59148;DHT22;44930;52.878;6.168;2023-05-29T09:38:00;13.70;99.90
59148;DHT22;44930;52.878;6.168;2023-05-29T09:40:26;13.30;99.90
59148;DHT22;44930;52.878;6.168;2023-05-29T09:42:52;13.30;99.90
59148;DHT22;44930;52.878;6.168;2023-05-29T09:45:17;13.00;99.90
59148;DHT22;44930;52.878;6.168;2023-05-29T09:47:43;13.30;99.90
59148;DHT22;44930;52.878;6.168;2023-05-29T09:50:19;13.20;99.90
59148;DHT22;44930;52.878;6.168;2023-05-29T09:52:47;13.30;99.90
59148;DHT22;44930;52.878;6.168;2023-05-29T09:57:47;13.20;99.90
59148;DHT22;44930;52.878;6.168;2023-05-29T10:00:17;13.30;99.90
59148;DHT22;44930;52.878;6.168;2023-05-29T10:02:43;13.30;99.90
59148;DHT22;44930;52.878;6.168;2023-05-29T10:05:09;13.40;99.90
59148;DHT22;44930;52.878;6.168;2023-05-29T10:07:37;13.50;99.90
59148;DHT22;44930;52.878;6.168;2023-05-29T10:10:06;13.20;99.90
59148;DHT22;44930;52.878;6.168;2023-05-29T10:12:38;13.50;99.90
59148;DHT22;44930;52.878;6.168;2023-05-29T10:15:19;13.60;99.90
59148;DHT22;44930;52.878;6.168;2023-05-29T10:18:04;13.90;99.90
59148;DHT22;44930;52.878;6.168;2023-05-29T10:20:31;13.70;99.90
59148;DHT22;44930;52.878;6.168;2023-05-29T10:23:00;13.90;99.90
59148;DHT22;44930;52.878;6.168;2023-05-29T10:25:27;13.70;99.90
59148;DHT22;44930;52.878;6.168;2023-05-29T10:27:56;13.80;99.90
59148;DHT22;44930;52.878;6.168;2023-05-29T10:30:41;13.30;99.90
59148;DHT22;44930;52.878;6.168;2023-05-29T10:36:10;14.10;99.90
59148;DHT22;44930;52.878;6.168;2023-05-29T10:38:40;13.80;99.90
59148;DHT22;44930;52.878;6.168;2023-05-29T10:44:37;13.90;99.90
59148;DHT22;44930;52.878;6.168;2023-05-29T10:47:04;13.70;99.90
59148;DHT22;44930;52.878;6.168;2023-05-29T10:49:30;14.00;99.90
59148;DHT22;44930;52.878;6.168;2023-05-29T10:51:58;14.10;99.90
59148;DHT22;44930;52.878;6.168;2023-05-29T10:54:26;14.30;99.90
59148;DHT22;44930;52.878;6.168;2023-05-29T10:56:56;14.30;99.90
59148;DHT22;44930;52.878;6.168;2023-05-29T10:59:22;14.00;99.90
59148;DHT22;44930;52.878;6.168;2023-05-29T11:01:53;14.00;99.90
59148;DHT22;44930;52.878;6.168;2023-05-29T11:06:50;14.20;99.90
59148;DHT22;44930;52.878;6.168;2023-05-29T11:09:30;14.00;99.90
59148;DHT22;44930;52.878;6.168;2023-05-29T11:12:17;14.50;99.90
59148;DHT22;44930;52.878;6.168;2023-05-29T11:15:06;14.40;99.90
59148;DHT22;44930;52.878;6.168;2023-05-29T11:20:05;14.80;99.90
59148;DHT22;44930;52.878;6.168;2023-05-29T11:22:53;15.00;99.90
59148;DHT22;44930;52.878;6.168;2023-05-29T11:25:21;14.90;99.90
59148;DHT22;44930;52.878;6.168;2023-05-29T11:27:47;15.10;99.90
59148;DHT22;44930;52.878;6.168;2023-05-29T11:30:13;14.90;99.90
59148;DHT22;44930;52.878;6.168;2023-05-29T11:32:40;15.00;99.90
59148;DHT22;44930;52.878;6.168;2023-05-29T11:35:09;15.00;99.90
59148;DHT22;44930;52.878;6.168;2023-05-29T11:37:37;15.00;99.90
59148;DHT22;44930;52.878;6.168;2023-05-29T11:40:07;15.00;99.90
59148;DHT22;44930;52.878;6.168;2023-05-29T11:42:40;15.00;99.90
59148;DHT22;44930;52.878;6.168;2023-05-29T11:45:13;15.20;99.90
59148;DHT22;44930;52.878;6.168;2023-05-29T11:50:21;15.00;99.90
59148;DHT22;44930;52.878;6.168;2023-05-29T11:52:47;15.20;99.90
59148;DHT22;44930;52.878;6.168;2023-05-29T11:55:13;15.10;99.90
59148;DHT22;44930;52.878;6.168;2023-05-29T11:57:39;15.00;99.90
59148;DHT22;44930;52.878;6.168;2023-05-29T12:00:05;15.10;99.90
59148;DHT22;44930;52.878;6.168;2023-05-29T12:02:38;15.10;99.90
59148;DHT22;44930;52.878;6.168;2023-05-29T12:05:04;14.70;99.90
59148;DHT22;44930;52.878;6.168;2023-05-29T12:07:31;15.60;99.90
59148;DHT22;44930;52.878;6.168;2023-05-29T12:09:56;15.70;99.90
59148;DHT22;44930;52.878;6.168;2023-05-29T12:12:23;15.30;99.90
59148;DHT22;44930;52.878;6.168;2023-05-29T12:14:52;15.90;99.90
59148;DHT22;44930;52.878;6.168;2023-05-29T12:17:19;15.30;99.90
59148;DHT22;44930;52.878;6.168;2023-05-29T12:19:46;16.00;99.90
59148;DHT22;44930;52.878;6.168;2023-05-29T12:22:11;15.30;99.90
59148;DHT22;44930;52.878;6.168;2023-05-29T12:24:37;15.60;99.90
59148;DHT22;44930;52.878;6.168;2023-05-29T12:27:06;15.60;99.90
59148;DHT22;44930;52.878;6.168;2023-05-29T12:29:36;15.80;99.90
59148;DHT22;44930;52.878;6.168;2023-05-29T12:32:01;15.90;99.90
59148;DHT22;44930;52.878;6.168;2023-05-29T12:34:27;16.00;99.90
59148;DHT22;44930;52.878;6.168;2023-05-29T12:37:09;15.70;99.90
59148;DHT22;44930;52.878;6.168;2023-05-29T12:39:39;16.10;99.90
59148;DHT22;44930;52.878;6.168;2023-05-29T12:42:05;16.10;99.90
59148;DHT22;44930;52.878;6.168;2023-05-29T12:44:31;16.40;99.90
59148;DHT22;44930;52.878;6.168;2023-05-29T12:46:56;16.40;99.90
59148;DHT22;44930;52.878;6.168;2023-05-29T12:49:22;16.20;99.90
59148;DHT22;44930;52.878;6.168;2023-05-29T12:51:51;16.10;99.90
59148;DHT22;44930;52.878;6.168;2023-05-29T12:54:17;16.60;99.90
59148;DHT22;44930;52.878;6.168;2023-05-29T12:56:43;15.80;99.90
59148;DHT22;44930;52.878;6.168;2023-05-29T12:59:11;16.70;99.90
59148;DHT22;44930;52.878;6.168;2023-05-29T13:01:37;16.10;99.90
59148;DHT22;44930;52.878;6.168;2023-05-29T13:04:04;16.40;99.90
59148;DHT22;44930;52.878;6.168;2023-05-29T13:06:33;16.20;99.90
59148;DHT22;44930;52.878;6.168;2023-05-29T13:08:58;16.20;99.90
59148;DHT22;44930;52.878;6.168;2023-05-29T13:11:24;16.60;99.90
59148;DHT22;44930;52.878;6.168;2023-05-29T13:13:51;16.20;99.90
59148;DHT22;44930;52.878;6.168;2023-05-29T13:16:16;16.80;99.90
59148;DHT22;44930;52.878;6.168;2023-05-29T13:18:43;16.30;99.90
59148;DHT22;44930;52.878;6.168;2023-05-29T13:21:09;16.80;99.90
59148;DHT22;44930;52.878;6.168;2023-05-29T13:23:35;16.70;99.90
59148;DHT22;44930;52.878;6.168;2023-05-29T13:26:01;16.50;99.90
59148;DHT22;44930;52.878;6.168;2023-05-29T13:28:26;16.70;99.90
59148;DHT22;44930;52.878;6.168;2023-05-29T13:30:52;16.50;99.90
59148;DHT22;44930;52.878;6.168;2023-05-29T13:33:18;16.40;99.90
59148;DHT22;44930;52.878;6.168;2023-05-29T13:35:44;17.10;99.90
59148;DHT22;44930;52.878;6.168;2023-05-29T13:38:09;16.80;99.90
59148;DHT22;44930;52.878;6.168;2023-05-29T13:40:35;16.50;99.90
59148;DHT22;44930;52.878;6.168;2023-05-29T13:43:01;16.70;99.90
59148;DHT22;44930;52.878;6.168;2023-05-29T13:45:26;16.90;99.90
59148;DHT22;44930;52.878;6.168;2023-05-29T13:47:53;16.70;99.90
59148;DHT22;44930;52.878;6.168;2023-05-29T13:50:19;16.80;99.90
59148;DHT22;44930;52.878;6.168;2023-05-29T13:52:45;16.80;99.90
59148;DHT22;44930;52.878;6.168;2023-05-29T13:55:11;16.90;99.90
59148;DHT22;44930;52.878;6.168;2023-05-29T13:57:36;17.30;99.90
59148;DHT22;44930;52.878;6.168;2023-05-29T14:00:03;16.80;99.90
59148;DHT22;44930;52.878;6.168;2023-05-29T14:02:29;17.20;99.90
59148;DHT22;44930;52.878;6.168;2023-05-29T14:04:55;16.80;99.90
59148;DHT22;44930;52.878;6.168;2023-05-29T14:07:20;17.00;99.90
59148;DHT22;44930;52.878;6.168;2023-05-29T14:09:46;16.70;99.90
59148;DHT22;44930;52.878;6.168;2023-05-29T14:12:11;17.40;99.90
59148;DHT22;44930;52.878;6.168;2023-05-29T14:14:37;16.80;99.90
59148;DHT22;44930;52.878;6.168;2023-05-29T14:17:04;16.90;99.90
59148;DHT22;44930;52.878;6.168;2023-05-29T14:19:30;16.70;99.90
59148;DHT22;44930;52.878;6.168;2023-05-29T14:21:56;17.90;99.90
59148;DHT22;44930;52.878;6.168;2023-05-29T14:24:21;17.20;99.90
59148;DHT22;44930;52.878;6.168;2023-05-29T14:26:48;16.90;99.90
59148;DHT22;44930;52.878;6.168;2023-05-29T14:29:14;17.10;99.90
59148;DHT22;44930;52.878;6.168;2023-05-29T14:31:41;17.20;99.90
59148;DHT22;44930;52.878;6.168;2023-05-29T14:34:07;17.00;99.90
59148;DHT22;44930;52.878;6.168;2023-05-29T14:36:33;17.10;99.90
59148;DHT22;44930;52.878;6.168;2023-05-29T14:38:59;16.70;99.90
59148;DHT22;44930;52.878;6.168;2023-05-29T14:41:24;16.60;99.90
59148;DHT22;44930;52.878;6.168;2023-05-29T14:43:51;17.20;99.90
59148;DHT22;44930;52.878;6.168;2023-05-29T14:46:17;16.90;99.90
59148;DHT22;44930;52.878;6.168;2023-05-29T14:48:43;16.50;99.90
59148;DHT22;44930;52.878;6.168;2023-05-29T14:51:08;17.20;99.90
59148;DHT22;44930;52.878;6.168;2023-05-29T14:53:35;16.80;99.90
59148;DHT22;44930;52.878;6.168;2023-05-29T14:56:01;16.90;99.90
59148;DHT22;44930;52.878;6.168;2023-05-29T14:58:26;16.60;99.90
59148;DHT22;44930;52.878;6.168;2023-05-29T15:00:52;17.10;99.90
59148;DHT22;44930;52.878;6.168;2023-05-29T15:03:18;16.80;99.90
59148;DHT22;44930;52.878;6.168;2023-05-29T15:05:44;16.80;99.90
59148;DHT22;44930;52.878;6.168;2023-05-29T15:08:09;16.90;99.90
59148;DHT22;44930;52.878;6.168;2023-05-29T15:10:35;17.40;99.90
59148;DHT22;44930;52.878;6.168;2023-05-29T15:13:00;17.40;99.90
59148;DHT22;44930;52.878;6.168;2023-05-29T15:15:29;17.10;99.90
59148;DHT22;44930;52.878;6.168;2023-05-29T15:17:54;17.30;99.90
59148;DHT22;44930;52.878;6.168;2023-05-29T15:20:23;17.00;99.90
59148;DHT22;44930;52.878;6.168;2023-05-29T15:22:50;16.90;99.90
59148;DHT22;44930;52.878;6.168;2023-05-29T15:25:17;17.20;99.90
59148;DHT22;44930;52.878;6.168;2023-05-29T15:27:42;17.40;99.90
59148;DHT22;44930;52.878;6.168;2023-05-29T15:32:39;17.30;99.90
59148;DHT22;44930;52.878;6.168;2023-05-29T15:35:07;17.40;99.90
59148;DHT22;44930;52.878;6.168;2023-05-29T15:37:33;17.40;99.90
59148;DHT22;44930;52.878;6.168;2023-05-29T15:39:59;17.40;99.90
59148;DHT22;44930;52.878;6.168;2023-05-29T15:42:25;17.70;99.90
59148;DHT22;44930;52.878;6.168;2023-05-29T15:44:50;17.50;99.90
59148;DHT22;44930;52.878;6.168;2023-05-29T15:47:16;17.40;99.90
59148;DHT22;44930;52.878;6.168;2023-05-29T15:49:41;17.70;99.90
59148;DHT22;44930;52.878;6.168;2023-05-29T15:52:07;18.00;99.30
59148;DHT22;44930;52.878;6.168;2023-05-29T15:54:33;18.10;98.50
59148;DHT22;44930;52.878;6.168;2023-05-29T15:56:58;17.90;99.50
59148;DHT22;44930;52.878;6.168;2023-05-29T15:59:30;16.90;99.10
59148;DHT22;44930;52.878;6.168;2023-05-29T16:01:56;17.10;98.90
59148;DHT22;44930;52.878;6.168;2023-05-29T16:04:22;16.80;99.60
59148;DHT22;44930;52.878;6.168;2023-05-29T16:06:47;16.70;99.90
59148;DHT22;44930;52.878;6.168;2023-05-29T16:09:14;16.40;99.90
59148;DHT22;44930;52.878;6.168;2023-05-29T16:11:40;17.90;99.90
59148;DHT22;44930;52.878;6.168;2023-05-29T16:14:06;16.10;99.90
59148;DHT22;44930;52.878;6.168;2023-05-29T16:16:32;16.00;99.80
59148;DHT22;44930;52.878;6.168;2023-05-29T16:18:59;15.80;99.90
59148;DHT22;44930;52.878;6.168;2023-05-29T16:21:24;15.50;99.90
59148;DHT22;44930;52.878;6.168;2023-05-29T16:23:50;15.70;99.90
59148;DHT22;44930;52.878;6.168;2023-05-29T16:26:22;15.60;99.90
59148;DHT22;44930;52.878;6.168;2023-05-29T16:28:47;15.80;99.90
59148;DHT22;44930;52.878;6.168;2023-05-29T16:31:13;15.70;99.90
59148;DHT22;44930;52.878;6.168;2023-05-29T16:33:39;15.80;99.90
59148;DHT22;44930;52.878;6.168;2023-05-29T16:36:05;15.60;99.90
59148;DHT22;44930;52.878;6.168;2023-05-29T16:38:31;15.50;99.90
59148;DHT22;44930;52.878;6.168;2023-05-29T16:40:56;15.40;99.90
59148;DHT22;44930;52.878;6.168;2023-05-29T16:43:22;15.10;99.90